Time;durP1;ratioP1;P1;durP2;ratioP2;P2;SDS_P1;SDS_P2;PMS_P1;PMS_P2;Temp;Humidity;BMP_temperature;BMP_pressure;BME280_temperature;BME280_humidity;BME280_pressure;Samples;Min_cycle;Max_cycle;Signal;HPM_P1;HPM_P2
2022/12/10 00:00:32;;;;;;;0.30;0.30;;;;;;;-3.77;100.00;100826.41;4973980;28;20084;-70
2022/12/10 00:02:58;;;;;;;0.30;0.30;;;;;;;-3.75;100.00;100822.91;4990736;28;20037;-69
2022/12/10 00:05:23;;;;;;;0.20;0.20;;;;;;;-3.73;100.00;100827.22;4987570;28;20034;-69
2022/12/10 00:07:48;;;;;;;0.30;0.30;;;;;;;-3.70;100.00;100832.41;4975393;28;20133;-69
2022/12/10 00:10:14;;;;;;;0.30;0.30;;;;;;;-3.65;100.00;100825.31;4972136;28;20034;-69
2022/12/10 00:12:39;;;;;;;0.30;0.30;;;;;;;-3.75;100.00;100807.16;4981079;28;20036;-69
2022/12/10 00:15:05;;;;;;;0.30;0.30;;;;;;;-3.90;100.00;100775.06;4979099;28;20424;-69
2022/12/10 00:17:30;;;;;;;0.20;0.20;;;;;;;-3.64;100.00;100816.56;4975812;28;20045;-69
2022/12/10 00:19:56;;;;;;;0.40;0.40;;;;;;;-3.52;100.00;100823.31;4974324;28;20510;-69
2022/12/10 00:22:21;;;;;;;0.30;0.30;;;;;;;-3.52;100.00;100819.81;4980061;28;20041;-69
2022/12/10 00:24:46;;;;;;;0.30;0.30;;;;;;;-3.67;100.00;100810.47;4996483;28;20069;-70
2022/12/10 00:27:12;;;;;;;0.30;0.30;;;;;;;-3.56;100.00;100824.28;4991319;28;20076;-69
2022/12/10 00:29:37;;;;;;;0.30;0.30;;;;;;;-3.59;100.00;100829.56;4987431;28;20057;-69
2022/12/10 00:32:05;;;;;;;0.35;0.35;;;;;;;-3.55;100.00;100825.13;4992337;28;20042;-69
2022/12/10 00:34:30;;;;;;;0.30;0.30;;;;;;;-3.49;100.00;100818.00;4970873;28;20351;-69
2022/12/10 00:36:56;;;;;;;0.30;0.30;;;;;;;-3.47;100.00;100824.09;4976855;28;20522;-69
2022/12/10 00:39:21;;;;;;;0.30;0.30;;;;;;;-3.47;100.00;100826.72;4989523;28;20033;-69
2022/12/10 00:41:47;;;;;;;0.30;0.30;;;;;;;-3.54;100.00;100811.09;4989670;28;20041;-69
2022/12/10 00:44:13;;;;;;;0.30;0.30;;;;;;;-3.62;100.00;100798.13;4992498;28;22290;-69
2022/12/10 00:46:38;;;;;;;0.30;0.30;;;;;;;-3.43;100.00;100832.78;4990926;28;20030;-69
2022/12/10 00:49:04;;;;;;;0.30;0.30;;;;;;;-3.43;100.00;100831.88;4972847;28;20046;-69
2022/12/10 00:51:29;;;;;;;0.30;0.30;;;;;;;-3.40;100.00;100829.19;4971196;28;20148;-69
2022/12/10 00:53:56;;;;;;;0.30;0.30;;;;;;;-3.41;100.00;100824.84;4987824;28;20460;-69
2022/12/10 00:56:30;;;;;;;0.30;0.30;;;;;;;-3.38;100.00;100837.91;4965293;28;20030;-69
2022/12/10 00:58:56;;;;;;;0.30;0.30;;;;;;;-3.55;100.00;100797.13;4990424;28;20607;-69
2022/12/10 01:01:27;;;;;;;0.30;0.30;;;;;;;-3.41;100.00;100822.22;4994531;28;20280;-69
2022/12/10 01:03:55;;;;;;;0.30;0.30;;;;;;;-3.41;100.00;100823.09;4990451;28;20042;-69
2022/12/10 01:06:23;;;;;;;0.30;0.30;;;;;;;-3.40;100.00;100821.31;4981073;28;20357;-69
2022/12/10 01:08:49;;;;;;;0.38;0.38;;;;;;;-3.49;100.00;100799.63;4968674;28;20033;-69
2022/12/10 01:11:17;;;;;;;0.30;0.30;;;;;;;-3.34;100.00;100815.97;4972663;28;20455;-69
2022/12/10 01:13:43;;;;;;;0.30;0.30;;;;;;;-3.34;100.00;100815.97;4973211;28;20385;-69
2022/12/10 01:16:10;;;;;;;0.40;0.40;;;;;;;-3.57;100.00;100795.41;4973801;28;20034;-69
2022/12/10 01:18:35;;;;;;;0.40;0.40;;;;;;;-3.39;100.00;100820.44;4985221;28;20030;-69
2022/12/10 01:21:05;;;;;;;0.30;0.30;;;;;;;-3.50;100.00;100824.16;4987981;28;20060;-69
2022/12/10 01:23:35;;;;;;;0.30;0.30;;;;;;;-3.54;100.00;100822.47;4976209;28;20145;-69
2022/12/10 01:26:02;;;;;;;0.30;0.30;;;;;;;-3.53;100.00;100832.09;4978174;28;20038;-69
2022/12/10 01:28:29;;;;;;;0.30;0.30;;;;;;;-3.79;100.00;100804.59;4961489;28;20470;-69
2022/12/10 01:30:55;;;;;;;0.30;0.30;;;;;;;-3.85;100.00;100793.34;4992228;28;20456;-69
2022/12/10 01:33:20;;;;;;;0.38;0.38;;;;;;;-3.78;100.00;100831.69;4989409;28;20034;-69
2022/12/10 01:35:45;;;;;;;0.30;0.30;;;;;;;-3.88;100.00;100838.00;4998476;28;20623;-69
2022/12/10 01:38:11;;;;;;;0.30;0.30;;;;;;;-3.96;100.00;100833.75;4988402;28;20076;-69
2022/12/10 01:40:37;;;;;;;0.30;0.30;;;;;;;-4.05;100.00;100814.69;4971415;28;20038;-69
2022/12/10 01:43:03;;;;;;;0.30;0.30;;;;;;;-3.89;100.00;100838.88;4974093;28;20034;-69
2022/12/10 01:45:28;;;;;;;0.30;0.30;;;;;;;-3.84;100.00;100840.53;4963945;28;20550;-69
2022/12/10 01:47:54;;;;;;;0.30;0.30;;;;;;;-3.85;100.00;100841.41;4989972;28;20500;-69
2022/12/10 01:50:19;;;;;;;0.30;0.30;;;;;;;-3.81;100.00;100853.59;4990102;28;20030;-69
2022/12/10 01:52:45;;;;;;;0.30;0.30;;;;;;;-3.90;100.00;100843.25;4989435;28;20030;-69
2022/12/10 01:55:47;;;;;;;0.30;0.30;;;;;;;-3.78;100.00;100855.28;4973134;28;20049;-69
2022/12/10 01:58:14;;;;;;;0.35;0.35;;;;;;;-3.84;100.00;100848.41;4972294;28;20034;-69
2022/12/10 02:00:46;;;;;;;0.30;0.30;;;;;;;-3.92;100.00;100845.91;4974407;28;20344;-69
2022/12/10 02:03:14;;;;;;;0.30;0.30;;;;;;;-3.83;100.00;100855.38;4974194;28;20036;-69
2022/12/10 02:05:43;;;;;;;0.30;0.30;;;;;;;-3.81;100.00;100853.59;4969793;28;20057;-69
2022/12/10 02:08:16;;;;;;;0.30;0.30;;;;;;;-3.85;100.00;100853.69;4970352;28;20562;-69
2022/12/10 02:11:03;;;;;;;0.30;0.30;;;;;;;-3.84;100.00;100852.81;4973444;28;20041;-69
2022/12/10 02:13:34;;;;;;;0.30;0.30;;;;;;;-3.81;100.00;100857.97;4987497;28;20037;-69
2022/12/10 02:16:04;;;;;;;0.30;0.30;;;;;;;-3.87;100.00;100852.84;4976527;28;20459;-69
2022/12/10 02:18:36;;;;;;;0.30;0.30;;;;;;;-4.14;100.00;100816.56;4972567;28;20104;-69
2022/12/10 02:21:16;;;;;;;0.40;0.40;;;;;;;-3.90;100.00;100851.13;4971579;28;20041;-69
2022/12/10 02:23:45;;;;;;;0.30;0.30;;;;;;;-3.79;100.00;100851.81;4981968;28;20412;-69
2022/12/10 02:26:16;;;;;;;0.30;0.30;;;;;;;-3.69;100.00;100857.75;4975861;28;20034;-69
2022/12/10 02:28:52;;;;;;;0.30;0.30;;;;;;;-3.74;100.00;100835.97;4972061;28;20061;-69
2022/12/10 02:31:21;;;;;;;0.30;0.30;;;;;;;-3.53;100.00;100849.59;4974979;28;20124;-69
2022/12/10 02:33:50;;;;;;;0.35;0.35;;;;;;;-3.50;100.00;100850.41;4976930;28;20030;-69
2022/12/10 02:36:16;;;;;;;0.30;0.30;;;;;;;-3.48;100.00;100839.88;4971889;28;20652;-69
2022/12/10 02:38:42;;;;;;;0.30;0.30;;;;;;;-3.44;100.00;100840.69;4970996;28;20061;-69
2022/12/10 02:41:28;;;;;;;0.30;0.30;;;;;;;-3.41;100.00;100856.34;4973057;28;20221;-69
2022/12/10 02:43:56;;;;;;;0.30;0.30;;;;;;;-3.55;100.00;100843.50;4989796;28;20037;-69
2022/12/10 02:46:22;;;;;;;0.40;0.40;;;;;;;-3.52;100.00;100848.69;4972429;28;20034;-69
2022/12/10 02:48:48;;;;;;;0.38;0.38;;;;;;;-3.47;100.00;100847.72;4974244;28;20038;-69
2022/12/10 02:51:14;;;;;;;0.30;0.30;;;;;;;-3.39;100.00;100847.56;4973108;28;20037;-69
2022/12/10 02:53:43;;;;;;;0.40;0.40;;;;;;;-3.29;100.00;100853.50;4975454;28;20465;-69
2022/12/10 02:56:27;;;;;;;0.30;0.30;;;;;;;-3.26;100.00;100850.81;4968735;28;20045;-69
2022/12/10 02:59:20;;;;;;;0.38;0.38;;;;;;;-3.32;100.00;100825.56;4978222;28;20041;-69
2022/12/10 03:02:16;;;;;;;0.32;0.32;;;;;;;-3.17;100.00;100844.50;4987825;28;20049;-69
2022/12/10 03:04:53;;;;;;;0.40;0.40;;;;;;;-3.18;100.00;100846.25;4981550;28;20034;-69
2022/12/10 03:07:24;;;;;;;0.30;0.30;;;;;;;-3.15;100.00;100853.22;4975796;28;20034;-69
2022/12/10 03:10:01;;;;;;;0.30;0.30;;;;;;;-3.14;100.00;100852.31;4963944;28;20052;-69
2022/12/10 03:12:35;;;;;;;0.40;0.40;;;;;;;-3.14;100.00;100852.31;4962733;28;20038;-69
2022/12/10 03:15:03;;;;;;;0.40;0.40;;;;;;;-3.19;100.00;100847.19;4995100;28;20479;-69
2022/12/10 03:17:30;;;;;;;0.35;0.35;;;;;;;-3.18;100.00;100842.78;4968502;28;20038;-69
2022/12/10 03:19:57;;;;;;;0.30;0.30;;;;;;;-3.35;100.00;100830.88;4959644;28;20026;-69
2022/12/10 03:22:22;;;;;;;0.30;0.30;;;;;;;-3.26;100.00;100842.06;4983987;28;20439;-69
2022/12/10 03:24:48;;;;;;;0.40;0.40;;;;;;;-3.24;100.00;100848.16;4997165;28;20037;-69
2022/12/10 03:27:15;;;;;;;0.30;0.30;;;;;;;-3.35;100.00;100836.13;4980696;28;20063;-69
2022/12/10 03:29:52;;;;;;;0.30;0.30;;;;;;;-3.33;100.00;100844.84;4991068;28;20077;-69
2022/12/10 03:32:19;;;;;;;0.35;0.35;;;;;;;-3.61;100.00;100807.75;4972643;28;20108;-69
2022/12/10 03:34:45;;;;;;;0.30;0.30;;;;;;;-3.41;100.00;100851.09;4992244;28;20036;-69
2022/12/10 03:37:11;;;;;;;0.30;0.30;;;;;;;-3.48;100.00;100853.88;4977457;28;20026;-69
2022/12/10 03:39:38;;;;;;;0.30;0.30;;;;;;;-3.49;100.00;100849.50;4975739;28;20030;-69
2022/12/10 03:42:04;;;;;;;0.40;0.40;;;;;;;-3.53;100.00;100853.09;4986477;28;20454;-69
2022/12/10 03:44:31;;;;;;;0.40;0.40;;;;;;;-3.53;100.00;100853.09;4992529;28;20032;-69
2022/12/10 03:46:57;;;;;;;0.40;0.40;;;;;;;-3.65;100.00;100842.81;4974740;28;20069;-69
2022/12/10 03:49:23;;;;;;;0.38;0.38;;;;;;;-3.68;100.00;100838.50;4989820;28;20034;-69
2022/12/10 03:51:48;;;;;;;0.30;0.30;;;;;;;-3.49;100.00;100852.13;4983479;28;20117;-69
2022/12/10 03:54:13;;;;;;;0.30;0.30;;;;;;;-3.51;100.00;100853.03;4968184;28;20038;-69
2022/12/10 03:56:39;;;;;;;0.30;0.30;;;;;;;-3.72;100.00;100813.19;4975310;28;20129;-69
2022/12/10 03:59:04;;;;;;;0.30;0.30;;;;;;;-3.55;100.00;100847.00;4989025;28;20038;-69
2022/12/10 04:01:29;;;;;;;0.30;0.30;;;;;;;-3.56;100.00;100845.28;4989755;28;20100;-69
2022/12/10 04:03:55;;;;;;;0.30;0.30;;;;;;;-3.67;100.00;100829.72;4979516;28;20041;-69
2022/12/10 04:06:20;;;;;;;0.32;0.32;;;;;;;-3.69;100.00;100852.50;4992871;28;20176;-69
2022/12/10 04:08:47;;;;;;;0.38;0.38;;;;;;;-3.69;100.00;100862.13;4995377;28;20026;-69
2022/12/10 04:11:13;;;;;;;0.32;0.32;;;;;;;-3.89;100.00;100831.88;4972071;28;20033;-69
2022/12/10 04:16:26;;;;;;;;;;;;;;;-3.74;100.00;100859.59;4991558;28;20032;-69
2022/12/10 04:18:51;;;;;;;0.40;0.40;;;;;;;-3.68;100.00;100863.84;4992827;28;20318;-69
2022/12/10 04:26:53;;;;;;;0.28;0.28;;;;;;;-3.43;100.00;100861.66;4978945;28;20125;-69
2022/12/10 04:29:20;;;;;;;0.30;0.30;;;;;;;-3.47;100.00;100867.84;4969350;28;20057;-68
2022/12/10 04:31:46;;;;;;;0.50;0.50;;;;;;;-3.69;100.00;100859.50;4973444;28;20036;-69
2022/12/10 04:34:11;;;;;;;0.40;0.40;;;;;;;-3.68;100.00;100863.84;4990930;28;20061;-69
2022/12/10 04:36:36;;;;;;;0.40;0.40;;;;;;;-3.59;100.00;100862.84;4993824;28;20545;-69
2022/12/10 04:39:02;;;;;;;0.35;0.35;;;;;;;-3.50;100.00;100868.78;4991997;28;20034;-68
2022/12/10 04:41:28;;;;;;;0.32;0.32;;;;;;;-3.58;100.00;100868.06;4983357;28;20029;-68
2022/12/10 04:43:53;;;;;;;0.40;0.40;;;;;;;-3.56;100.00;100871.50;4992447;28;20065;-69
2022/12/10 04:46:18;;;;;;;0.50;0.50;;;;;;;-3.47;100.00;100870.47;4989905;28;20030;-68
2022/12/10 04:48:44;;;;;;;0.50;0.50;;;;;;;-3.77;100.00;100851.78;4993027;28;20034;-68
2022/12/10 04:51:09;;;;;;;0.50;0.50;;;;;;;-3.65;100.00;100877.81;4991864;28;20659;-68
2022/12/10 04:53:34;;;;;;;0.40;0.40;;;;;;;-3.66;100.00;100883.06;4994577;28;20606;-68
2022/12/10 04:56:01;;;;;;;0.60;0.60;;;;;;;-3.41;100.00;100879.97;4993213;28;20044;-69
2022/12/10 04:58:30;;;;;;;0.47;0.47;;;;;;;-3.45;100.00;100879.19;4977580;28;20030;-69
2022/12/10 05:01:01;;;;;;;0.38;0.38;;;;;;;-3.43;100.00;100881.78;4973152;28;20077;-68
2022/12/10 05:03:26;;;;;;;0.38;0.38;;;;;;;-3.65;100.00;100890.94;4990733;28;20026;-69
2022/12/10 05:05:52;;;;;;;0.47;0.47;;;;;;;-3.66;100.00;100889.19;4992445;28;20045;-68
2022/12/10 05:08:17;;;;;;;0.60;0.60;;;;;;;-3.66;100.00;100888.31;4996614;28;20073;-69
2022/12/10 05:10:42;;;;;;;0.68;0.68;;;;;;;-3.67;100.00;100886.59;4977025;28;20366;-69
2022/12/10 05:13:07;;;;;;;0.80;0.80;;;;;;;-3.47;100.00;100883.59;4984999;28;20049;-68
2022/12/10 05:15:37;;;;;;;0.50;0.50;;;;;;;-3.68;100.00;100885.72;4987496;28;20056;-69
2022/12/10 05:18:03;;;;;;;0.47;0.47;;;;;;;-3.60;100.00;100887.38;4986788;28;20046;-69
2022/12/10 05:20:28;;;;;;;0.50;0.50;;;;;;;-3.66;100.00;100885.69;4991179;28;20033;-69
2022/12/10 05:25:52;;;;;;;0.60;0.60;;;;;;;-3.66;100.00;100886.56;4993151;28;20065;-69
2022/12/10 05:28:21;;;;;;;0.40;0.40;;;;;;;-3.54;100.00;100893.34;4995809;28;20046;-68
2022/12/10 05:30:46;;;;;;;0.60;0.60;;;;;;;-3.67;100.00;100899.69;4977402;28;20490;-68
2022/12/10 05:33:11;;;;;;;0.60;0.60;;;;;;;-3.62;100.00;100892.63;4992724;28;20116;-68
2022/12/10 05:35:37;;;;;;;0.55;0.55;;;;;;;-3.60;100.00;100892.59;4983898;28;20029;-68
2022/12/10 05:38:02;;;;;;;0.40;0.40;;;;;;;-3.55;100.00;100891.63;4976867;28;20077;-69
2022/12/10 05:40:27;;;;;;;0.40;0.40;;;;;;;-3.47;100.00;100894.09;4989886;28;20041;-69
2022/12/10 05:42:53;;;;;;;0.40;0.40;;;;;;;-3.64;100.00;100848.03;4972965;28;20034;-68
2022/12/10 05:45:18;;;;;;;0.55;0.55;;;;;;;-3.29;100.00;100885.00;4955645;28;20038;-69
2022/12/10 05:47:43;;;;;;;0.47;0.47;;;;;;;-3.36;100.00;100886.91;4972035;28;20479;-69
2022/12/10 05:50:11;;;;;;;0.45;0.45;;;;;;;-3.47;100.00;100870.47;4990170;28;20478;-68
2022/12/10 05:52:36;;;;;;;0.60;0.60;;;;;;;-3.39;100.00;100865.94;4975087;28;20484;-68
2022/12/10 05:55:02;;;;;;;0.57;0.57;;;;;;;-3.17;100.00;100886.53;4977097;28;20137;-69
2022/12/10 05:57:27;;;;;;;0.50;0.50;;;;;;;-3.25;100.00;100888.44;4990383;28;20036;-69
2022/12/10 05:59:53;;;;;;;1.00;1.00;;;;;;;-3.28;100.00;100862.22;4973237;28;20026;-68
2022/12/10 06:02:18;;;;;;;0.90;0.90;;;;;;;-3.30;100.00;100867.53;4985197;28;20433;-68
2022/12/10 06:04:43;;;;;;;0.90;0.90;;;;;;;-3.45;100.00;100886.22;4990866;28;20026;-68
2022/12/10 06:07:09;;;;;;;1.80;1.70;;;;;;;-3.58;100.00;100867.19;4989987;28;20044;-68
2022/12/10 06:09:34;;;;;;;0.68;0.68;;;;;;;-3.65;100.00;100856.81;4986421;28;20030;-68
2022/12/10 06:11:59;;;;;;;0.80;0.80;;;;;;;-3.48;100.00;100872.25;4973348;28;20219;-68
2022/12/10 06:14:24;;;;;;;0.88;0.88;;;;;;;-3.50;100.00;100874.03;4973038;28;20117;-68
2022/12/10 06:16:50;;;;;;;0.60;0.60;;;;;;;-3.51;100.00;100858.28;4989159;28;20116;-69
2022/12/10 06:19:15;;;;;;;0.60;0.60;;;;;;;-3.27;100.00;100883.22;4992027;28;20030;-68
2022/12/10 06:21:40;;;;;;;0.57;0.57;;;;;;;-3.27;100.00;100888.47;4985812;28;20030;-68
2022/12/10 06:24:06;;;;;;;0.50;0.50;;;;;;;-3.31;100.00;100873.66;4989086;28;20031;-69
2022/12/10 06:26:31;;;;;;;0.57;0.57;;;;;;;-3.28;100.00;100891.13;4977048;28;20030;-68
2022/12/10 06:28:57;;;;;;;0.80;0.80;;;;;;;-3.27;100.00;100903.34;4993338;28;20065;-69
2022/12/10 06:31:23;;;;;;;0.60;0.60;;;;;;;-3.24;100.00;100903.28;4977387;28;20034;-68
2022/12/10 06:33:48;;;;;;;1.58;1.48;;;;;;;-3.08;100.00;100895.97;4979357;28;20491;-68
2022/12/10 06:36:15;;;;;;;0.80;0.80;;;;;;;-3.24;100.00;100890.16;4966914;28;20026;-68
2022/12/10 06:38:41;;;;;;;0.75;0.75;;;;;;;-3.07;100.00;100908.22;4974757;28;20022;-68
2022/12/10 06:41:08;;;;;;;1.90;1.80;;;;;;;-2.96;100.00;100903.63;4975149;28;20365;-68
2022/12/10 06:43:34;;;;;;;0.80;0.80;;;;;;;-2.96;100.00;100903.63;4979022;28;20096;-69
2022/12/10 06:46:05;;;;;;;0.95;0.95;;;;;;;-3.03;100.00;100902.00;4997635;28;20407;-69
2022/12/10 06:48:30;;;;;;;0.50;0.50;;;;;;;-3.05;100.00;100902.06;4978783;28;20111;-68
2022/12/10 06:50:55;;;;;;;0.50;0.50;;;;;;;-3.03;100.00;100904.63;4998447;28;20148;-69
2022/12/10 06:53:20;;;;;;;0.43;0.43;;;;;;;-3.02;100.00;100907.22;4993377;28;20088;-69
2022/12/10 06:55:46;;;;;;;0.40;0.40;;;;;;;-2.96;100.00;100908.00;4990959;28;20491;-69
2022/12/10 06:58:11;;;;;;;0.50;0.50;;;;;;;-3.03;100.00;100917.78;4991617;28;20062;-68
2022/12/10 07:00:36;;;;;;;0.50;0.50;;;;;;;-3.13;100.00;100922.34;4989618;28;20041;-69
2022/12/10 07:03:02;;;;;;;0.47;0.47;;;;;;;-2.87;100.00;100913.06;4987172;28;20038;-68
2022/12/10 07:05:27;;;;;;;0.75;0.75;;;;;;;-3.15;100.00;100897.88;4994539;28;20034;-68
2022/12/10 07:07:52;;;;;;;0.70;0.70;;;;;;;-3.05;100.00;100919.56;4992843;28;20601;-69
2022/12/10 07:10:18;;;;;;;1.17;1.17;;;;;;;-2.89;100.00;100925.38;4991846;28;20045;-68
2022/12/10 07:12:43;;;;;;;0.40;0.40;;;;;;;-2.98;100.00;100921.19;4990727;28;20061;-69
2022/12/10 07:15:08;;;;;;;0.50;0.50;;;;;;;-2.99;100.00;100926.44;4991225;28;20510;-69
2022/12/10 07:17:34;;;;;;;0.40;0.40;;;;;;;-2.97;100.00;100927.28;4975341;28;20034;-69
2022/12/10 07:19:59;;;;;;;0.47;0.47;;;;;;;-2.95;100.00;100929.00;4993148;28;20029;-69
2022/12/10 07:22:24;;;;;;;0.50;0.50;;;;;;;-3.07;100.00;100937.13;4975812;28;20062;-68
2022/12/10 07:24:50;;;;;;;0.60;0.60;;;;;;;-3.12;100.00;100936.34;4990035;28;20027;-69
2022/12/10 07:27:15;;;;;;;0.50;0.50;;;;;;;-3.17;100.00;100932.03;4989309;28;20069;-69
2022/12/10 07:29:41;;;;;;;0.40;0.40;;;;;;;-3.02;100.00;100945.78;4992729;28;20143;-69
2022/12/10 07:32:06;;;;;;;0.60;0.60;;;;;;;-3.07;100.00;100952.88;4984956;28;20087;-69
2022/12/10 07:34:31;;;;;;;0.50;0.50;;;;;;;-2.95;100.00;100951.78;4991773;28;20030;-69
2022/12/10 07:36:56;;;;;;;0.50;0.50;;;;;;;-2.97;100.00;100950.94;4996113;28;20045;-69
2022/12/10 07:39:22;;;;;;;0.60;0.60;;;;;;;-3.07;100.00;100951.13;4994558;28;20034;-69
2022/12/10 07:41:50;;;;;;;0.50;0.50;;;;;;;-3.06;100.00;100946.72;4993047;28;20042;-69
2022/12/10 07:44:18;;;;;;;0.40;0.40;;;;;;;-2.93;100.00;100956.13;5000076;28;20416;-69
2022/12/10 07:46:43;;;;;;;0.60;0.60;;;;;;;-2.98;100.00;100968.47;4997452;28;20141;-68
2022/12/10 07:49:09;;;;;;;0.60;0.60;;;;;;;-3.01;100.00;100955.41;4974769;28;20384;-68
2022/12/10 07:51:34;;;;;;;0.50;0.50;;;;;;;-3.29;100.00;100923.53;4991244;28;20041;-69
2022/12/10 07:53:59;;;;;;;0.57;0.57;;;;;;;-3.07;100.00;100966.91;4989519;28;20112;-68
2022/12/10 07:56:25;;;;;;;0.50;0.50;;;;;;;-2.81;100.00;100959.38;4992578;28;20161;-69
2022/12/10 07:58:51;;;;;;;1.52;1.42;;;;;;;-2.65;100.00;100959.94;4973826;28;20105;-69
2022/12/10 08:01:19;;;;;;;1.02;1.02;;;;;;;-2.81;100.00;100964.63;4991206;28;20148;-69
2022/12/10 08:03:44;;;;;;;0.40;0.40;;;;;;;-2.83;100.00;100966.41;4989323;28;20034;-69
2022/12/10 08:06:15;;;;;;;0.50;0.50;;;;;;;-2.97;100.00;100983.34;4990033;28;20068;-69
2022/12/10 08:08:41;;;;;;;0.40;0.40;;;;;;;-3.06;100.00;100966.00;4990599;28;20030;-69
2022/12/10 08:11:07;;;;;;;0.43;0.43;;;;;;;-2.92;100.00;100975.38;4979751;28;20029;-69
2022/12/10 08:13:33;;;;;;;0.40;0.40;;;;;;;-2.91;100.00;100991.09;4997849;28;20080;-69
2022/12/10 08:16:16;;;;;;;0.40;0.40;;;;;;;-2.86;100.00;100981.34;4975718;28;20034;-70
2022/12/10 08:18:42;;;;;;;0.50;0.50;;;;;;;-2.74;100.00;100992.53;4977973;28;20072;-69
2022/12/10 08:21:13;;;;;;;0.40;0.40;;;;;;;-2.88;100.00;100977.03;4990662;28;20034;-69
2022/12/10 08:23:39;;;;;;;0.52;0.52;;;;;;;-2.81;100.00;100998.78;4990683;28;20030;-69
2022/12/10 08:26:09;;;;;;;0.60;0.60;;;;;;;-2.98;100.00;100957.97;4975929;28;20051;-69
2022/12/10 08:28:35;;;;;;;0.60;0.60;;;;;;;-2.81;100.00;101004.94;4983526;28;20697;-70
2022/12/10 08:31:00;;;;;;;0.40;0.40;;;;;;;-2.71;100.00;101000.34;4998098;28;20039;-69
2022/12/10 08:33:26;;;;;;;0.40;0.40;;;;;;;-2.61;100.00;101012.41;4995968;28;20520;-70
2022/12/10 08:35:51;;;;;;;0.43;0.43;;;;;;;-2.66;100.00;101003.75;4993015;28;20038;-70
2022/12/10 08:38:17;;;;;;;0.40;0.40;;;;;;;-2.60;100.00;101013.28;4977076;28;20034;-69
2022/12/10 08:40:42;;;;;;;0.50;0.50;;;;;;;-2.62;100.00;101010.66;4993999;28;20107;-69
2022/12/10 08:43:08;;;;;;;0.50;0.50;;;;;;;-2.68;100.00;100987.16;4991842;28;20120;-69
2022/12/10 08:45:33;;;;;;;0.50;0.50;;;;;;;-2.52;100.00;101007.88;4993993;28;20030;-69
2022/12/10 08:48:00;;;;;;;0.40;0.40;;;;;;;-2.51;100.00;101020.13;4987932;28;20034;-69
2022/12/10 08:50:25;;;;;;;0.60;0.60;;;;;;;-2.75;100.00;100999.53;4991987;28;20088;-69
2022/12/10 08:52:50;;;;;;;1.00;1.00;;;;;;;-2.57;100.00;101011.44;4967291;28;20037;-69
2022/12/10 08:55:16;;;;;;;0.98;0.98;;;;;;;-2.53;100.00;100991.25;4990945;28;20060;-69
2022/12/10 08:57:41;;;;;;;0.70;0.70;;;;;;;-2.62;100.00;101005.41;4990725;28;20034;-69
2022/12/10 09:00:07;;;;;;;0.85;0.85;;;;;;;-2.62;100.00;100999.31;4994215;28;20030;-69
2022/12/10 09:02:32;;;;;;;0.80;0.80;;;;;;;-2.69;100.00;100995.06;4987964;28;20124;-69
2022/12/10 09:04:57;;;;;;;1.15;1.15;;;;;;;-2.35;100.00;101015.41;4989245;28;20401;-69
2022/12/10 09:07:23;;;;;;;0.45;0.45;;;;;;;-2.52;100.00;101024.53;4992942;28;20503;-69
2022/12/10 09:09:48;;;;;;;0.50;0.50;;;;;;;-2.38;100.00;101018.09;4993631;28;20547;-69
2022/12/10 09:12:13;;;;;;;0.73;0.73;;;;;;;-2.39;100.00;101014.63;4977234;28;20615;-70
2022/12/10 09:14:40;;;;;;;0.90;0.90;;;;;;;-2.46;100.00;101013.00;4971608;28;20031;-69
2022/12/10 09:17:05;;;;;;;1.33;1.33;;;;;;;-2.29;100.00;101013.50;4989169;28;20027;-70
2022/12/10 09:19:31;;;;;;;0.93;0.93;;;;;;;-2.62;100.00;101026.44;4992034;28;20033;-70
2022/12/10 09:21:56;;;;;;;0.68;0.68;;;;;;;-2.49;100.00;101023.56;4973256;28;20540;-69
2022/12/10 09:24:21;;;;;;;1.10;1.10;;;;;;;-2.22;100.00;101026.53;4991890;28;20450;-69
2022/12/10 09:26:47;;;;;;;0.90;0.90;;;;;;;-2.53;100.00;101030.69;4975806;28;20025;-70
2022/12/10 09:29:12;;;;;;;0.90;0.90;;;;;;;-2.22;100.00;101035.28;4971858;28;20327;-69
2022/12/10 09:31:38;;;;;;;0.90;0.90;;;;;;;-2.35;100.00;101033.81;4985759;28;20515;-69
2022/12/10 09:34:03;;;;;;;0.77;0.77;;;;;;;-2.33;100.00;101032.88;4987400;28;20116;-70
2022/12/10 09:36:29;;;;;;;0.93;0.93;;;;;;;-2.33;100.00;101037.28;4970281;28;20347;-69
2022/12/10 09:38:54;;;;;;;1.02;1.02;;;;;;;-2.50;100.00;101009.53;4966884;28;20120;-70
2022/12/10 09:41:54;;;;;;;0.75;0.75;;;;;;;-2.43;100.00;101040.09;4969628;28;20044;-69
2022/12/10 09:44:30;;;;;;;1.08;1.08;;;;;;;-2.24;100.00;101050.22;4970330;28;20032;-70
2022/12/10 09:47:00;;;;;;;0.70;0.70;;;;;;;-2.41;100.00;101042.69;4956288;28;20488;-69
2022/12/10 09:50:00;;;;;;;0.68;0.68;;;;;;;-2.41;100.00;101037.44;4960698;28;20473;-70
2022/12/10 09:52:31;;;;;;;0.55;0.55;;;;;;;-2.48;100.00;101047.19;4971811;28;20468;-69
2022/12/10 09:55:02;;;;;;;0.40;0.40;;;;;;;-2.31;100.00;101044.22;4989911;28;20037;-70
2022/12/10 09:58:00;;;;;;;0.65;0.65;;;;;;;-2.33;100.00;101048.66;4977452;28;20102;-70
2022/12/10 10:00:35;;;;;;;0.60;0.60;;;;;;;-2.30;100.00;101048.59;4920249;28;20042;-70
2022/12/10 10:03:02;;;;;;;0.50;0.50;;;;;;;-2.43;100.00;101036.59;4974520;28;20034;-70
2022/12/10 10:05:41;;;;;;;0.60;0.60;;;;;;;-2.30;100.00;101047.75;4992879;28;20026;-70
2022/12/10 10:08:14;;;;;;;0.40;0.40;;;;;;;-2.57;100.00;101011.44;4972592;28;20080;-70
2022/12/10 10:10:40;;;;;;;0.50;0.50;;;;;;;-2.15;100.00;101044.78;4973242;28;20026;-69
2022/12/10 10:13:08;;;;;;;0.52;0.52;;;;;;;-2.34;100.00;101054.81;4975373;28;20516;-69
2022/12/10 10:15:40;;;;;;;0.40;0.40;;;;;;;-2.37;100.00;101032.97;4990464;28;20035;-70
2022/12/10 10:18:33;;;;;;;0.40;0.40;;;;;;;-2.26;100.00;101041.53;4974715;28;20037;-70
2022/12/10 10:20:59;;;;;;;0.50;0.50;;;;;;;-2.39;100.00;101022.50;4971715;28;20041;-70
2022/12/10 10:23:26;;;;;;;0.60;0.60;;;;;;;-2.22;100.00;101053.69;4969904;28;20099;-70
2022/12/10 10:25:51;;;;;;;0.57;0.57;;;;;;;-2.24;100.00;101059.88;4986705;28;20500;-70
2022/12/10 10:28:20;;;;;;;0.60;0.60;;;;;;;-2.12;100.00;101057.88;4970451;28;20036;-70
2022/12/10 10:30:45;;;;;;;0.73;0.73;;;;;;;-2.05;100.00;101049.84;4990401;28;20416;-69
2022/12/10 10:33:13;;;;;;;0.70;0.70;;;;;;;-1.96;100.00;101054.88;4990126;28;20112;-70
2022/12/10 10:35:43;;;;;;;0.40;0.40;;;;;;;-1.97;100.00;101056.66;4989897;28;20073;-70
2022/12/10 10:38:26;;;;;;;0.68;0.68;;;;;;;-2.12;100.00;101036.81;4991180;28;20121;-70
2022/12/10 10:40:53;;;;;;;0.50;0.50;;;;;;;-2.03;100.00;101048.03;4970920;28;20034;-70
2022/12/10 10:43:34;;;;;;;0.60;0.60;;;;;;;-2.13;100.00;101055.28;4961140;28;20113;-70
2022/12/10 10:46:04;;;;;;;1.00;1.00;;;;;;;-1.94;100.00;101060.13;4975379;28;20101;-69
2022/12/10 10:48:30;;;;;;;1.08;1.08;;;;;;;-1.66;100.00;101063.00;4988298;28;20029;-69
2022/12/10 10:51:11;;;;;;;1.10;1.10;;;;;;;-2.03;100.00;101061.19;4982734;28;20030;-70
2022/12/10 10:53:50;;;;;;;0.70;0.70;;;;;;;-2.17;100.00;101037.81;4983016;28;20097;-69
2022/12/10 10:56:17;;;;;;;0.80;0.80;;;;;;;-1.99;100.00;101062.88;4985240;28;20455;-70
2022/12/10 10:59:07;;;;;;;1.10;1.10;;;;;;;-2.06;100.00;101067.38;4989214;28;20065;-70
2022/12/10 11:01:50;;;;;;;0.88;0.88;;;;;;;-1.87;100.00;101056.47;4966040;28;20549;-70
2022/12/10 11:04:16;;;;;;;1.27;1.27;;;;;;;-1.83;100.00;101063.38;4971859;28;20556;-70
2022/12/10 11:06:42;;;;;;;0.93;0.93;;;;;;;-1.99;100.00;101055.81;4967113;28;20026;-70
2022/12/10 11:09:08;;;;;;;1.10;1.10;;;;;;;-1.94;100.00;101047.81;4988828;28;20030;-70
2022/12/10 11:11:35;;;;;;;1.08;1.08;;;;;;;-2.04;100.00;101052.44;4990512;28;20052;-69
2022/12/10 11:14:23;;;;;;;0.60;0.60;;;;;;;-2.20;100.00;101043.16;4975062;28;20030;-70
2022/12/10 11:16:48;;;;;;;0.90;0.90;;;;;;;-2.04;100.00;101047.16;4990672;28;20038;-69
2022/12/10 11:19:20;;;;;;;1.20;1.20;;;;;;;-2.19;100.00;101048.34;4990937;28;20037;-70
2022/12/10 11:21:46;;;;;;;0.93;0.93;;;;;;;-2.30;100.00;101003.03;4966578;28;20032;-70
2022/12/10 11:24:16;;;;;;;0.60;0.60;;;;;;;-2.02;100.00;101048.00;4983733;28;20034;-70
2022/12/10 11:26:51;;;;;;;0.52;0.52;;;;;;;-1.98;100.00;101044.41;4973290;28;20026;-70
2022/12/10 11:29:38;;;;;;;0.50;0.50;;;;;;;-1.99;100.00;101047.94;4992884;28;20056;-70
2022/12/10 11:32:21;;;;;;;0.50;0.50;;;;;;;-2.03;100.00;101045.41;4989124;28;20093;-70